createdAt,value
2022-10-22T00:01:13.536Z,100.00
2022-10-22T00:09:29.274Z,100.00
2022-10-22T00:12:19.797Z,100.00
2022-10-22T00:17:57.579Z,100.00
2022-10-22T00:23:25.154Z,100.00
2022-10-22T00:28:58.101Z,100.00
2022-10-22T00:34:34.577Z,100.00
2022-10-22T00:40:13.744Z,100.00
2022-10-22T00:45:49.414Z,100.00
2022-10-22T00:51:32.409Z,100.00
2022-10-22T00:54:21.784Z,100.00
2022-10-22T00:59:58.402Z,100.00
2022-10-22T01:05:36.645Z,100.00
2022-10-22T01:08:28.271Z,100.00
2022-10-22T01:14:14.184Z,100.00
2022-10-22T01:19:54.281Z,100.00
2022-10-22T01:28:19.714Z,100.00
2022-10-22T01:42:14.374Z,100.00
2022-10-22T01:47:56.402Z,100.00
2022-10-22T01:53:53.501Z,100.00
2022-10-22T01:59:34.647Z,100.00
2022-10-22T02:02:30.184Z,100.00
2022-10-22T02:08:11.352Z,100.00
2022-10-22T02:13:53.048Z,100.00
2022-10-22T02:16:43.904Z,100.00
2022-10-22T02:22:22.535Z,100.00
2022-10-22T02:28:00.974Z,100.00
2022-10-22T02:33:41.650Z,100.00
2022-10-22T02:36:30.880Z,100.00
2022-10-22T02:42:07.818Z,100.00
2022-10-22T02:47:43.540Z,100.00
2022-10-22T02:53:17.745Z,100.00
2022-10-22T02:59:01.386Z,100.00
2022-10-22T03:04:31.830Z,100.00
2022-10-22T03:10:12.495Z,100.00
2022-10-22T03:15:51.975Z,100.00
2022-10-22T03:21:31.328Z,100.00
2022-10-22T03:27:08.109Z,100.00
2022-10-22T03:29:57.864Z,100.00
2022-10-22T03:35:27.440Z,100.00
2022-10-22T03:38:16.620Z,100.00
2022-10-22T03:43:54.916Z,100.00
2022-10-22T03:49:33.072Z,100.00
2022-10-22T03:52:21.752Z,100.00
2022-10-22T03:55:11.248Z,100.00
2022-10-22T04:00:47.193Z,100.00
2022-10-22T04:06:25.530Z,100.00
2022-10-22T04:09:18.161Z,100.00
2022-10-22T04:14:53.252Z,100.00
2022-10-22T04:23:14.730Z,100.00
2022-10-22T04:28:47.321Z,100.00
2022-10-22T04:34:20.774Z,100.00
2022-10-22T04:40:15.045Z,100.00
2022-10-22T04:45:45.640Z,100.00
2022-10-22T04:51:23.965Z,100.00
2022-10-22T04:57:00.512Z,100.00
2022-10-22T04:59:49.473Z,100.00
2022-10-22T05:02:38.101Z,100.00
2022-10-22T05:08:23.627Z,100.00
2022-10-22T05:14:05.852Z,100.00
2022-10-22T05:16:54.892Z,100.00
2022-10-22T05:22:35.592Z,100.00
2022-10-22T05:28:11.251Z,100.00
2022-10-22T05:34:46.700Z,100.00
2022-10-22T05:37:34.534Z,100.00
2022-10-22T05:40:30.413Z,100.00
2022-10-22T05:43:14.004Z,100.00
2022-10-22T05:46:07.325Z,100.00
2022-10-22T05:48:57.762Z,100.00
2022-10-22T05:51:46.766Z,100.00
2022-10-22T05:54:35.130Z,100.00
2022-10-22T05:57:23.251Z,100.00
2022-10-22T06:00:18.375Z,100.00
2022-10-22T06:06:02.387Z,100.00
2022-10-22T06:08:52.891Z,100.00
2022-10-22T06:14:27.380Z,100.00
2022-10-22T06:20:00.241Z,100.00
2022-10-22T06:25:36.298Z,100.00
2022-10-22T06:31:11.889Z,100.00
2022-10-22T06:36:51.597Z,100.00
2022-10-22T06:42:29.559Z,100.00
2022-10-22T06:48:06.036Z,100.00
2022-10-22T06:53:41.195Z,100.00
2022-10-22T06:59:13.879Z,100.00
2022-10-22T07:04:43.864Z,100.00
2022-10-22T07:07:32.387Z,100.00
2022-10-22T07:10:21.438Z,100.00
2022-10-22T07:13:09.653Z,100.00
2022-10-22T07:32:26.040Z,100.00
2022-10-22T07:40:43.579Z,100.00
2022-10-22T07:46:13.261Z,100.00
2022-10-22T07:49:02.538Z,100.00
2022-10-22T07:54:30.945Z,100.00
2022-10-22T07:57:19.456Z,100.00
2022-10-22T08:00:11.153Z,100.00
2022-10-22T08:02:59.269Z,100.00
2022-10-22T08:08:30.785Z,98.48
2022-10-22T08:11:19.412Z,96.83
2022-10-22T08:16:54.444Z,94.06
2022-10-22T08:19:43.947Z,94.70
2022-10-22T08:22:32.133Z,91.65
2022-10-22T08:25:21.271Z,91.03
2022-10-22T08:28:09.105Z,90.00
2022-10-22T08:30:57.417Z,89.94
2022-10-22T08:33:45.764Z,89.13
2022-10-22T08:36:33.655Z,91.08
2022-10-22T08:39:23.030Z,92.85
2022-10-22T08:45:22.797Z,95.05
2022-10-22T08:48:18.380Z,95.80
2022-10-22T08:54:09.650Z,95.49
2022-10-22T08:57:13.317Z,97.17
2022-10-22T09:02:56.699Z,96.76
2022-10-22T09:08:39.460Z,92.56
2022-10-22T09:17:22.505Z,90.55
2022-10-22T09:25:49.902Z,89.59
2022-10-22T09:34:09.542Z,85.51
2022-10-22T09:39:50.331Z,86.24
2022-10-22T09:45:26.426Z,84.03
2022-10-22T09:51:10.368Z,81.96
2022-10-22T09:56:55.709Z,80.00
2022-10-22T09:59:45.818Z,77.86
2022-10-22T10:02:38.503Z,78.10
2022-10-22T10:08:18.658Z,77.38
2022-10-22T10:16:58.038Z,77.06
2022-10-22T10:22:52.158Z,75.76
2022-10-22T10:28:54.789Z,73.76
2022-10-22T10:34:40.386Z,74.22
2022-10-22T10:37:34.104Z,73.75
2022-10-22T10:43:17.568Z,71.08
2022-10-22T10:48:57.603Z,71.05
2022-10-22T10:51:51.784Z,71.15
2022-10-22T10:54:49.752Z,71.19
2022-10-22T11:00:24.893Z,71.89
2022-10-22T11:03:51.830Z,71.27
2022-10-22T11:09:50.153Z,69.59
2022-10-22T11:15:39.710Z,70.28
2022-10-22T11:21:25.598Z,72.07
2022-10-22T11:24:19.908Z,72.32
2022-10-22T11:27:12.439Z,70.05
2022-10-22T11:32:45.018Z,70.37
2022-10-22T11:35:37.535Z,69.28
2022-10-22T11:41:38.181Z,68.72
2022-10-22T11:44:29.304Z,68.72
2022-10-22T11:47:28.149Z,67.91
2022-10-22T11:50:25.036Z,67.63
2022-10-22T11:56:26.704Z,64.66
2022-10-22T12:02:44.462Z,67.13
2022-10-22T12:08:28.540Z,66.10
2022-10-22T12:14:21.333Z,64.71
2022-10-22T12:20:02.474Z,64.37
2022-10-22T12:25:38.851Z,64.11
2022-10-22T12:31:26.634Z,64.90
2022-10-22T12:34:21.245Z,64.48
2022-10-22T12:40:22.401Z,63.77
2022-10-22T12:46:01.127Z,63.48
2022-10-22T12:51:41.694Z,62.83
2022-10-22T13:00:21.737Z,64.24
2022-10-22T13:06:16.472Z,63.78
2022-10-22T13:12:07.822Z,62.69
2022-10-22T13:17:42.227Z,60.54
2022-10-22T13:20:31.407Z,62.25
2022-10-22T13:23:21.805Z,61.37
2022-10-22T13:28:57.487Z,59.08
2022-10-22T13:31:49.562Z,59.72
2022-10-22T13:37:28.657Z,61.00
2022-10-22T13:40:20.402Z,61.77
2022-10-22T13:45:59.085Z,62.19
2022-10-22T13:51:36.214Z,62.50
2022-10-22T13:57:14.012Z,59.36
2022-10-22T14:02:42.993Z,60.84
2022-10-22T14:08:22.304Z,61.72
2022-10-22T14:13:59.751Z,63.15
2022-10-22T14:16:48.259Z,62.89
2022-10-22T14:25:15.468Z,64.63
2022-10-22T14:31:12.386Z,63.83
2022-10-22T14:34:04.167Z,63.67
2022-10-22T14:36:53.013Z,64.76
2022-10-22T14:42:27.653Z,64.86
2022-10-22T14:45:31.882Z,65.54
2022-10-22T14:48:20.402Z,65.34
2022-10-22T14:51:11.526Z,65.86
2022-10-22T14:56:42.635Z,67.45
2022-10-22T15:02:19.219Z,67.66
2022-10-22T15:07:50.795Z,66.80
2022-10-22T15:13:32.443Z,69.11
2022-10-22T15:19:06.257Z,69.84
2022-10-22T15:24:42.472Z,69.80
2022-10-22T15:30:17.322Z,69.58
2022-10-22T15:35:54.434Z,70.30
2022-10-22T15:41:43.038Z,69.83
2022-10-22T15:44:32.148Z,69.68
2022-10-22T15:47:21.121Z,70.83
2022-10-22T15:50:10.522Z,70.88
2022-10-22T15:52:59.294Z,70.26
2022-10-22T15:58:58.770Z,69.92
2022-10-22T16:04:31.764Z,71.53
2022-10-22T16:10:11.073Z,72.69
2022-10-22T16:15:47.051Z,73.59
2022-10-22T16:21:18.294Z,74.46
2022-10-22T16:26:55.161Z,75.41
2022-10-22T16:29:44.165Z,75.81
2022-10-22T16:32:33.348Z,76.86
2022-10-22T16:38:10.110Z,78.71
2022-10-22T16:43:56.749Z,80.85
2022-10-22T16:49:34.106Z,82.60
2022-10-22T16:52:32.966Z,83.25
2022-10-22T16:55:31.183Z,83.42
2022-10-22T17:03:56.710Z,84.79
2022-10-22T17:09:36.116Z,84.05
2022-10-22T17:15:11.383Z,85.84
2022-10-22T17:20:50.472Z,86.65
2022-10-22T17:26:30.353Z,87.79
2022-10-22T17:32:05.700Z,88.42
2022-10-22T17:34:53.928Z,88.83
2022-10-22T17:40:23.593Z,89.55
2022-10-22T17:46:05.382Z,90.72
2022-10-22T17:51:42.014Z,90.69
2022-10-22T17:54:30.670Z,90.88
2022-10-22T18:00:09.671Z,90.75
2022-10-22T18:05:39.794Z,90.54
2022-10-22T18:11:19.989Z,91.24
2022-10-22T18:17:01.129Z,91.46
2022-10-22T18:22:35.211Z,91.37
2022-10-22T18:25:23.227Z,91.32
2022-10-22T18:31:08.745Z,91.64
2022-10-22T18:36:45.626Z,92.60
2022-10-22T18:42:21.573Z,92.29
2022-10-22T18:50:43.800Z,91.75
2022-10-22T18:56:21.966Z,92.58
2022-10-22T18:59:16.267Z,93.00
2022-10-22T19:02:04.861Z,93.65
2022-10-22T19:07:34.001Z,94.49
2022-10-22T19:13:14.032Z,95.39
2022-10-22T19:21:32.031Z,96.12
2022-10-22T19:24:21.621Z,96.00
2022-10-22T19:27:09.761Z,96.34
2022-10-22T19:32:46.166Z,96.76
2022-10-22T19:35:36.274Z,96.88
2022-10-22T19:41:10.173Z,96.46
2022-10-22T19:46:46.429Z,94.40
2022-10-22T19:49:35.858Z,95.19
2022-10-22T19:55:10.813Z,94.59
2022-10-22T20:00:47.382Z,94.91
2022-10-22T20:03:37.737Z,95.92
2022-10-22T20:09:12.328Z,96.79
2022-10-22T20:14:44.353Z,95.78
2022-10-22T20:20:21.954Z,98.33
2022-10-22T20:25:59.313Z,98.28
2022-10-22T20:31:35.864Z,98.59
2022-10-22T20:37:11.051Z,99.47
2022-10-22T20:42:50.887Z,97.79
2022-10-22T20:48:30.454Z,99.14
2022-10-22T20:54:08.422Z,100.00
2022-10-22T20:59:40.563Z,100.00
2022-10-22T21:02:28.635Z,100.00
2022-10-22T21:10:50.048Z,100.00
2022-10-22T21:16:24.677Z,100.00
2022-10-22T21:19:13.192Z,100.00
2022-10-22T21:24:48.287Z,100.00
2022-10-22T21:27:36.536Z,100.00
2022-10-22T21:33:12.102Z,100.00
2022-10-22T21:38:50.044Z,100.00
2022-10-22T21:44:23.893Z,100.00
2022-10-22T21:47:13.325Z,100.00
2022-10-22T21:50:01.799Z,99.81
2022-10-22T21:52:50.429Z,100.00
2022-10-22T21:55:50.328Z,100.00
2022-10-22T21:58:39.121Z,100.00
2022-10-22T22:04:08.583Z,100.00
2022-10-22T22:09:46.842Z,100.00
2022-10-22T22:15:18.687Z,100.00
2022-10-22T22:18:08.723Z,100.00
2022-10-22T22:23:47.521Z,99.77
2022-10-22T22:29:18.022Z,100.00
2022-10-22T22:32:06.601Z,100.00
2022-10-22T22:37:42.256Z,100.00
2022-10-22T22:40:33.025Z,100.00
2022-10-22T22:43:21.027Z,100.00
2022-10-22T22:46:12.902Z,100.00
2022-10-22T22:51:48.168Z,100.00
2022-10-22T22:57:24.618Z,100.00
2022-10-22T23:02:57.325Z,100.00
2022-10-22T23:05:46.037Z,100.00
2022-10-22T23:08:34.543Z,100.00
2022-10-22T23:14:16.713Z,100.00
2022-10-22T23:17:04.877Z,100.00
2022-10-22T23:22:42.215Z,100.00
2022-10-22T23:28:15.057Z,100.00
2022-10-22T23:33:57.373Z,100.00
2022-10-22T23:36:46.566Z,100.00
2022-10-22T23:42:24.423Z,100.00
2022-10-22T23:45:13.191Z,100.00
2022-10-22T23:50:48.504Z,100.00
2022-10-22T23:56:25.028Z,100.00
